Time;durP1;ratioP1;P1;durP2;ratioP2;P2;SDS_P1;SDS_P2;PMS_P1;PMS_P2;Temp;Humidity;BMP_temperature;BMP_pressure;BME280_temperature;BME280_humidity;BME280_pressure;Samples;Min_cycle;Max_cycle;Signal;HPM_P1;HPM_P2
2022/01/28 00:00:46;;;;;;;17.77;7.93;;;;;;;1.35;100.00;100246.59;4970742;28;20074;-83
2022/01/28 00:03:17;;;;;;;15.32;8.23;;;;;;;1.26;100.00;100228.44;4958335;28;20698;-83
2022/01/28 00:05:45;;;;;;;15.05;7.90;;;;;;;1.30;100.00;100237.16;4972205;28;20074;-84
2022/01/28 00:08:12;;;;;;;13.32;7.00;;;;;;;1.36;100.00;100258.19;4966212;28;20543;-83
2022/01/28 00:10:41;;;;;;;17.60;8.80;;;;;;;1.36;100.00;100259.06;4966699;28;20053;-83
2022/01/28 00:19:26;;;;;;;19.77;8.93;;;;;;;1.41;100.00;100272.16;4962313;28;20109;-84
2022/01/28 00:38:54;;;;;;;16.75;8.13;;;;;;;1.44;100.00;100263.91;4971199;28;20058;-84
2022/01/28 00:41:29;;;;;;;14.93;7.60;;;;;;;1.52;100.00;100271.44;4972000;28;20526;-84
2022/01/28 00:44:15;;;;;;;16.02;8.60;;;;;;;1.38;100.00;100242.88;4973064;28;20431;-83
2022/01/28 00:46:51;;;;;;;15.10;9.38;;;;;;;1.55;100.00;100269.44;4972029;28;20081;-84
2022/01/28 00:52:36;;;;;;;18.25;8.10;;;;;;;1.41;100.00;100246.19;4958134;28;20086;-85
2022/01/28 00:58:34;;;;;;;14.95;7.72;;;;;;;1.59;100.00;100264.72;4908523;29;20091;-84
2022/01/28 01:01:32;;;;;;;19.92;8.45;;;;;;;1.56;100.00;100262.25;4913280;29;20040;-83
2022/01/28 01:04:33;;;;;;;12.63;7.30;;;;;;;1.54;100.00;100270.41;4953322;28;20113;-84
2022/01/28 01:07:08;;;;;;;11.95;6.50;;;;;;;1.47;100.00;100255.66;4959120;28;20491;-84
2022/01/28 01:09:52;;;;;;;18.40;8.98;;;;;;;1.49;100.00;100263.59;4965271;28;20078;-83
2022/01/28 01:12:24;;;;;;;18.08;8.35;;;;;;;1.50;100.00;100273.38;4971902;28;20050;-83
2022/01/28 01:14:52;;;;;;;12.30;6.60;;;;;;;1.50;100.00;100271.53;4972049;28;20137;-84
2022/01/28 01:17:30;;;;;;;17.83;8.77;;;;;;;1.41;100.00;100251.56;4971878;28;20085;-84
2022/01/28 01:20:12;;;;;;;17.55;9.13;;;;;;;1.50;100.00;100274.22;4976003;28;20046;-84
2022/01/28 01:22:40;;;;;;;14.98;6.97;;;;;;;1.49;100.00;100277.00;4977846;28;20051;-84
2022/01/28 01:25:22;;;;;;;11.98;7.60;;;;;;;1.52;100.00;100287.53;4976960;28;20050;-84
2022/01/28 01:27:54;;;;;;;17.05;8.52;;;;;;;1.46;100.00;100282.56;4977029;28;20097;-84
2022/01/28 01:30:21;;;;;;;14.02;8.07;;;;;;;1.49;100.00;100291.28;4977562;28;20058;-84
2022/01/28 01:32:47;;;;;;;12.02;7.85;;;;;;;1.50;100.00;100305.53;4975923;28;24078;-83
2022/01/28 01:35:14;;;;;;;16.92;8.65;;;;;;;1.48;100.00;100304.78;4977064;28;20085;-84
2022/01/28 01:37:42;;;;;;;15.70;7.80;;;;;;;1.33;100.00;100269.97;4975053;28;20050;-84
2022/01/28 01:40:11;;;;;;;18.95;8.27;;;;;;;1.46;100.00;100302.22;4976975;28;20476;-84
2022/01/28 01:42:46;;;;;;;15.02;8.07;;;;;;;1.44;100.00;100298.75;4977234;28;20415;-84
2022/01/28 01:53:33;;;;;;;18.33;7.50;;;;;;;1.35;100.00;100332.34;4975679;28;20058;-84
2022/01/28 01:56:05;;;;;;;17.00;8.50;;;;;;;1.33;100.00;100331.59;4976422;28;20125;-84
2022/01/28 01:58:40;;;;;;;19.10;8.45;;;;;;;1.36;100.00;100342.13;4977599;28;20062;-84
2022/01/28 02:01:08;;;;;;;20.50;8.98;;;;;;;1.32;100.00;100332.53;4960153;28;20622;-84
2022/01/28 02:03:53;;;;;;;16.65;8.63;;;;;;;1.27;100.00;100339.16;4957521;29;20094;-84
2022/01/28 02:06:22;;;;;;;15.55;6.35;;;;;;;1.17;100.00;100338.88;4961498;28;20475;-84
2022/01/28 02:08:52;;;;;;;12.50;6.70;;;;;;;1.20;100.00;100350.25;4977017;28;20137;-84
2022/01/28 02:11:19;;;;;;;13.82;7.32;;;;;;;1.23;100.00;100363.47;4967770;28;20062;-84
2022/01/28 02:14:09;;;;;;;18.67;7.65;;;;;;;1.15;100.00;100355.03;4973251;28;20051;-84
2022/01/28 02:16:55;;;;;;;16.17;7.68;;;;;;;1.04;100.00;100347.66;4972083;28;20081;-84
2022/01/28 02:19:28;;;;;;;16.95;8.25;;;;;;;1.10;100.00;100349.13;4976067;28;20063;-84
2022/01/28 02:21:57;;;;;;;17.40;7.38;;;;;;;0.99;100.00;100336.38;4977005;28;20047;-84
2022/01/28 02:24:39;;;;;;;13.82;7.75;;;;;;;1.03;100.00;100332.56;4961115;28;20134;-84
2022/01/28 02:27:07;;;;;;;18.63;7.85;;;;;;;1.11;100.00;100342.78;4974850;28;20109;-84
2022/01/28 02:29:55;;;;;;;14.65;8.35;;;;;;;1.10;100.00;100333.06;4975671;28;20085;-84
2022/01/28 02:32:22;;;;;;;15.93;8.35;;;;;;;1.16;100.00;100340.69;4957539;29;20456;-84
2022/01/28 02:34:49;;;;;;;16.05;7.82;;;;;;;1.15;100.00;100336.28;4957344;29;20138;-84
2022/01/28 02:37:20;;;;;;;13.27;7.18;;;;;;;1.28;100.00;100356.94;4970515;28;20129;-84
2022/01/28 02:39:52;;;;;;;16.55;7.68;;;;;;;1.23;100.00;100346.53;4976422;28;20066;-84
2022/01/28 02:42:28;;;;;;;17.23;7.72;;;;;;;1.25;100.00;100347.31;4976490;28;20054;-84
2022/01/28 02:44:56;;;;;;;12.40;6.10;;;;;;;1.28;100.00;100339.06;4968509;28;20130;-83
2022/01/28 02:47:32;;;;;;;15.55;7.78;;;;;;;1.21;100.00;100330.53;4975612;28;20506;-83
2022/01/28 02:50:18;;;;;;;14.70;6.95;;;;;;;1.35;100.00;100353.78;4976201;28;20046;-84
2022/01/28 02:53:01;;;;;;;15.52;8.48;;;;;;;1.29;100.00;100346.13;4972518;28;20051;-84
2022/01/28 02:55:30;;;;;;;15.40;7.97;;;;;;;1.23;100.00;100350.06;4975872;28;20134;-84
2022/01/28 02:58:17;;;;;;;15.80;8.00;;;;;;;1.27;100.00;100352.56;4976155;28;20066;-84
2022/01/28 03:00:47;;;;;;;15.25;8.20;;;;;;;1.30;100.00;100357.72;4964335;28;20053;-84
2022/01/28 03:03:14;;;;;;;13.90;7.05;;;;;;;1.27;100.00;100353.41;4967729;28;20051;-84
2022/01/28 03:05:44;;;;;;;16.02;8.40;;;;;;;1.27;100.00;100363.28;4975897;28;20073;-83
2022/01/28 03:08:13;;;;;;;15.93;8.38;;;;;;;1.29;100.00;100362.22;4975506;28;20057;-84
2022/01/28 03:10:49;;;;;;;12.95;7.25;;;;;;;1.26;100.00;100357.03;4975667;28;20047;-84
2022/01/28 03:13:45;;;;;;;14.15;7.70;;;;;;;1.20;100.00;100354.75;4969414;28;20051;-84
2022/01/28 03:16:14;;;;;;;18.25;8.20;;;;;;;1.29;100.00;100358.69;4970541;28;20057;-84
2022/01/28 03:18:51;;;;;;;17.02;8.85;;;;;;;1.27;100.00;100366.81;4973940;28;20055;-84
2022/01/28 03:21:28;;;;;;;14.90;8.07;;;;;;;1.30;100.00;100371.13;4968898;28;20061;-84
2022/01/28 03:24:00;;;;;;;14.25;7.53;;;;;;;1.28;100.00;100383.72;4974841;28;20502;-83
2022/01/28 03:26:33;;;;;;;15.45;8.43;;;;;;;1.32;100.00;100377.22;4975327;28;20054;-84
2022/01/28 03:29:10;;;;;;;22.60;8.65;;;;;;;1.31;100.00;100367.47;4975443;28;20050;-84
2022/01/28 03:31:38;;;;;;;16.52;8.10;;;;;;;1.24;100.00;100358.97;4975621;28;20047;-84
2022/01/28 03:34:05;;;;;;;15.20;8.15;;;;;;;1.35;100.00;100385.94;4970437;28;20097;-84
2022/01/28 03:36:35;;;;;;;15.73;8.00;;;;;;;1.36;100.00;100382.31;4971780;28;20134;-84
2022/01/28 03:39:03;;;;;;;16.05;7.50;;;;;;;1.33;100.00;100370.94;4975194;28;20050;-84
2022/01/28 03:41:33;;;;;;;19.23;9.10;;;;;;;1.29;100.00;100377.44;4975779;28;20473;-83
2022/01/28 03:44:03;;;;;;;18.55;9.38;;;;;;;1.35;100.00;100388.63;4974424;28;20055;-84
2022/01/28 03:46:49;;;;;;;16.33;8.82;;;;;;;1.28;100.00;100370.34;4975257;28;20133;-84
2022/01/28 03:49:16;;;;;;;21.42;9.00;;;;;;;1.35;100.00;100380.56;4967035;28;20051;-84
2022/01/28 03:51:43;;;;;;;15.82;9.13;;;;;;;1.37;100.00;100378.69;4974742;28;20054;-84
2022/01/28 03:54:11;;;;;;;21.92;9.30;;;;;;;1.32;100.00;100371.88;4963558;28;20395;-84
2022/01/28 03:56:37;;;;;;;20.25;9.45;;;;;;;1.34;100.00;100372.63;4974435;28;20057;-84
2022/01/28 03:59:04;;;;;;;19.80;9.05;;;;;;;1.31;100.00;100387.09;4975023;28;20046;-84
2022/01/28 04:01:35;;;;;;;18.25;9.02;;;;;;;1.48;100.00;100402.13;4975324;28;20057;-84
2022/01/28 04:12:15;;;;;;;19.15;9.25;;;;;;;1.47;100.00;100421.81;4974436;28;20144;-84
2022/01/28 04:14:48;;;;;;;16.10;9.68;;;;;;;1.48;100.00;100425.38;4973962;28;20039;-84
2022/01/28 04:17:21;;;;;;;16.13;8.60;;;;;;;1.44;100.00;100437.25;4974584;28;20061;-84
2022/01/28 04:19:49;;;;;;;16.58;8.48;;;;;;;1.30;100.00;100417.53;4974599;28;20047;-84
2022/01/28 04:22:16;;;;;;;15.80;7.75;;;;;;;1.30;100.00;100419.34;4973307;28;20058;-84
2022/01/28 04:24:44;;;;;;;17.98;8.73;;;;;;;1.34;100.00;100437.81;4971296;28;20528;-84
2022/01/28 04:27:13;;;;;;;14.68;7.65;;;;;;;1.33;100.00;100436.09;4974188;28;20050;-85
2022/01/28 04:29:40;;;;;;;15.90;8.00;;;;;;;1.18;100.00;100427.16;4974631;28;20047;-84
2022/01/28 04:32:08;;;;;;;18.85;8.95;;;;;;;1.18;100.00;100432.53;4974240;28;20077;-84
2022/01/28 04:34:35;;;;;;;17.27;9.05;;;;;;;1.20;100.00;100444.00;4973562;28;20082;-84
2022/01/28 04:37:10;;;;;;;26.40;8.30;;;;;;;1.16;100.00;100445.16;4973450;28;20046;-84
2022/01/28 04:39:44;;;;;;;19.38;9.02;;;;;;;1.25;100.00;100462.50;4970993;28;20059;-84
2022/01/28 04:42:23;;;;;;;18.25;9.23;;;;;;;1.19;100.00;100460.16;4972458;28;20051;-84
2022/01/28 04:44:59;;;;;;;17.45;8.43;;;;;;;1.13;100.00;100444.47;4963118;28;20043;-84
2022/01/28 04:47:32;;;;;;;18.05;9.27;;;;;;;1.11;100.00;100460.63;4973830;28;20101;-84
2022/01/28 04:50:06;;;;;;;19.10;9.32;;;;;;;1.14;100.00;100468.47;4974661;28;20554;-83
2022/01/28 04:55:35;;;;;;;18.25;9.73;;;;;;;1.08;100.00;100462.66;4964521;28;20443;-87
2022/01/28 05:01:21;;;;;;;16.10;8.68;;;;;;;0.93;100.00;100462.59;4974991;28;20043;-84
2022/01/28 05:04:00;;;;;;;30.65;11.30;;;;;;;0.99;100.00;100475.63;4977785;28;20051;-84
2022/01/28 05:15:16;;;;;;;17.15;7.97;;;;;;;0.84;100.00;100457.78;4973507;28;20622;-84
2022/01/28 05:24:04;;;;;;;20.65;10.40;;;;;;;0.92;100.00;100473.41;4963508;28;20177;-84
2022/01/28 05:29:04;;;;;;;18.20;8.18;;;;;;;0.83;100.00;100470.34;4971759;28;20593;-84
2022/01/28 05:31:32;;;;;;;17.88;9.32;;;;;;;0.91;100.00;100477.91;4977874;28;20055;-84
2022/01/28 05:33:59;;;;;;;19.90;9.48;;;;;;;0.95;100.00;100484.81;4970540;28;20125;-84
2022/01/28 05:36:26;;;;;;;18.15;9.63;;;;;;;0.80;100.00;100465.16;4978147;28;20487;-85
2022/01/28 05:38:53;;;;;;;24.48;10.30;;;;;;;0.83;100.00;100469.47;4977938;28;22168;-84
2022/01/28 05:41:20;;;;;;;19.40;9.32;;;;;;;0.84;100.00;100477.41;4977666;28;20057;-84
2022/01/28 05:43:49;;;;;;;20.13;9.48;;;;;;;0.90;100.00;100496.75;4972735;28;20043;-84
2022/01/28 05:46:17;;;;;;;22.25;8.23;;;;;;;0.88;100.00;100492.31;4976400;28;20053;-84
2022/01/28 05:48:47;;;;;;;23.55;9.07;;;;;;;0.73;100.00;100487.03;4977107;28;20146;-84
2022/01/28 05:51:14;;;;;;;22.70;10.18;;;;;;;0.74;100.00;100502.13;4976552;28;20055;-83
2022/01/28 05:53:41;;;;;;;22.17;9.63;;;;;;;0.76;100.00;100509.13;4968513;28;20047;-84
2022/01/28 05:56:09;;;;;;;22.73;9.40;;;;;;;0.67;100.00;100501.63;4969380;28;20503;-84
2022/01/28 05:58:35;;;;;;;17.48;9.77;;;;;;;0.65;100.00;100512.41;4977002;28;20055;-84
2022/01/28 06:01:02;;;;;;;17.98;8.10;;;;;;;0.64;100.00;100502.66;4974450;28;20081;-84
2022/01/28 06:03:29;;;;;;;27.08;10.35;;;;;;;0.64;100.00;100521.38;4973199;28;20057;-84
2022/01/28 06:05:57;;;;;;;22.67;10.13;;;;;;;0.70;100.00;100531.75;4973030;28;20043;-85
2022/01/28 06:08:35;;;;;;;17.23;9.40;;;;;;;0.58;100.00;100526.25;4977089;28;20051;-85
2022/01/28 06:11:01;;;;;;;23.27;10.07;;;;;;;0.70;100.00;100550.47;4974016;28;20070;-85
2022/01/28 06:13:29;;;;;;;22.02;9.38;;;;;;;0.59;100.00;100546.69;4975916;28;20051;-84
2022/01/28 06:15:57;;;;;;;21.95;9.80;;;;;;;0.70;100.00;100577.25;4969904;28;20142;-84
2022/01/28 06:18:24;;;;;;;19.92;9.98;;;;;;;0.70;100.00;100569.22;4973195;28;20102;-84
2022/01/28 06:20:51;;;;;;;22.80;11.30;;;;;;;0.77;100.00;100575.09;4973161;28;20050;-84
2022/01/28 06:23:22;;;;;;;21.30;9.93;;;;;;;0.83;100.00;100577.44;4976715;28;20058;-84
2022/01/28 06:25:50;;;;;;;17.75;9.18;;;;;;;0.86;100.00;100587.97;4976249;28;20078;-84
2022/01/28 06:28:17;;;;;;;28.52;11.35;;;;;;;0.86;100.00;100581.75;4976602;28;20051;-85
2022/01/28 06:30:44;;;;;;;23.73;11.07;;;;;;;0.94;100.00;100602.72;4976768;28;20121;-84
2022/01/28 06:33:12;;;;;;;22.80;7.47;;;;;;;0.86;100.00;100590.63;4975909;28;20132;-84
2022/01/28 06:35:40;;;;;;;24.20;10.45;;;;;;;0.95;100.00;100602.63;4974609;28;20046;-85
2022/01/28 06:38:06;;;;;;;22.67;10.85;;;;;;;1.02;100.00;100609.38;4976477;28;20047;-84
2022/01/28 06:40:35;;;;;;;26.52;10.50;;;;;;;1.03;100.00;100611.09;4975728;28;20067;-84
2022/01/28 06:43:14;;;;;;;18.17;9.68;;;;;;;0.96;100.00;100595.47;4975926;28;20061;-84
2022/01/28 06:45:42;;;;;;;25.15;9.88;;;;;;;1.00;100.00;100602.38;4968829;28;20106;-84
2022/01/28 06:48:10;;;;;;;30.42;10.73;;;;;;;1.02;100.00;100612.06;4976105;28;20057;-85
2022/01/28 06:50:38;;;;;;;23.25;10.30;;;;;;;0.91;100.00;100611.78;4960061;28;20151;-86
2022/01/28 06:53:10;;;;;;;19.40;8.70;;;;;;;0.94;100.00;100616.13;4974713;28;20573;-84
2022/01/28 06:55:38;;;;;;;28.88;11.02;;;;;;;0.94;100.00;100614.28;4966633;28;20066;-85
2022/01/28 06:58:07;;;;;;;26.70;10.40;;;;;;;1.00;100.00;100630.00;4972715;28;20431;-84
2022/01/28 07:00:37;;;;;;;20.42;10.70;;;;;;;0.96;100.00;100635.63;4975172;28;20415;-84
2022/01/28 07:03:04;;;;;;;28.10;10.85;;;;;;;0.88;100.00;100612.81;4975915;28;20087;-84
2022/01/28 07:05:33;;;;;;;28.63;11.00;;;;;;;0.96;100.00;100636.47;4975418;28;20054;-84
2022/01/28 07:08:00;;;;;;;26.10;11.65;;;;;;;0.89;100.00;100613.72;4975665;28;20047;-84
2022/01/28 07:10:33;;;;;;;25.30;8.98;;;;;;;0.97;100.00;100615.94;4975582;28;20074;-84
2022/01/28 07:13:14;;;;;;;27.88;12.35;;;;;;;1.01;100.00;100623.72;4971121;28;20042;-83
2022/01/28 07:15:42;;;;;;;26.05;11.77;;;;;;;0.96;100.00;100617.72;4971946;28;20039;-83
2022/01/28 07:18:09;;;;;;;29.15;11.82;;;;;;;1.03;100.00;100635.19;4965698;28;20069;-83
2022/01/28 07:20:35;;;;;;;24.95;11.65;;;;;;;1.02;100.00;100633.47;4973311;28;20129;-84
2022/01/28 07:23:02;;;;;;;25.98;11.32;;;;;;;1.00;100.00;100618.44;4971458;28;20414;-84
2022/01/28 07:25:30;;;;;;;21.60;9.68;;;;;;;1.10;100.00;100629.47;4969996;28;20090;-84
2022/01/28 07:27:57;;;;;;;23.05;11.48;;;;;;;1.03;100.00;100612.91;4969628;28;20141;-83
2022/01/28 07:30:25;;;;;;;21.55;11.50;;;;;;;1.05;100.00;100614.56;4970827;28;20055;-84
2022/01/28 07:32:52;;;;;;;28.35;12.07;;;;;;;1.10;100.00;100614.28;4973735;28;20051;-84
2022/01/28 07:35:19;;;;;;;24.60;11.23;;;;;;;1.26;100.00;100638.34;4973243;28;20114;-83
2022/01/28 07:37:46;;;;;;;23.17;10.07;;;;;;;1.16;100.00;100626.44;4972042;28;20053;-83
2022/01/28 07:40:13;;;;;;;34.22;12.20;;;;;;;1.28;100.00;100648.97;4972695;28;20081;-84
2022/01/28 07:42:40;;;;;;;25.42;10.45;;;;;;;1.23;100.00;100638.53;4974126;28;20055;-83
2022/01/28 07:45:10;;;;;;;25.13;11.73;;;;;;;1.26;100.00;100638.34;4971150;28;20058;-84
2022/01/28 07:47:39;;;;;;;;;;;;;;;1.36;100.00;100658.31;4972176;28;20047;-84
2022/01/28 07:50:08;;;;;;;28.67;10.90;;;;;;;1.39;100.00;100671.53;4965621;28;20024;-83
2022/01/28 07:52:36;;;;;;;27.85;10.80;;;;;;;1.44;100.00;100671.25;4973269;28;20074;-84
2022/01/28 07:55:09;;;;;;;24.13;11.60;;;;;;;1.44;100.00;100665.91;4968965;28;20467;-85
2022/01/28 07:57:36;;;;;;;26.73;10.18;;;;;;;1.46;100.00;100655.09;4974169;28;20101;-84
2022/01/28 08:00:04;;;;;;;22.55;9.98;;;;;;;1.46;100.00;100657.75;4969366;28;20078;-85
2022/01/28 08:02:33;;;;;;;25.50;11.10;;;;;;;1.42;100.00;100660.63;4972874;28;20090;-86
2022/01/28 08:05:01;;;;;;;20.25;10.75;;;;;;;1.43;100.00;100656.16;4971843;28;20089;-84
2022/01/28 08:07:28;;;;;;;21.27;9.70;;;;;;;1.46;100.00;100665.81;4968782;28;20061;-84
2022/01/28 08:09:56;;;;;;;26.08;11.05;;;;;;;1.45;100.00;100658.75;4974147;28;20051;-83
2022/01/28 08:12:22;;;;;;;25.88;11.55;;;;;;;1.46;100.00;100666.69;4969246;28;20054;-84
2022/01/28 08:14:50;;;;;;;27.08;11.75;;;;;;;1.57;100.00;100691.03;4972711;28;20474;-83
2022/01/28 08:17:17;;;;;;;22.23;10.70;;;;;;;1.63;100.00;100691.66;4968082;28;20058;-84
2022/01/28 08:19:46;;;;;;;27.02;11.02;;;;;;;1.57;100.00;100688.34;4972927;28;20141;-84
2022/01/28 08:22:14;;;;;;;19.73;10.20;;;;;;;1.67;100.00;100706.56;4973283;28;20043;-83
2022/01/28 08:24:41;;;;;;;21.25;10.30;;;;;;;1.70;100.00;100701.91;4972814;28;20050;-83
2022/01/28 08:27:08;;;;;;;20.35;10.18;;;;;;;1.67;100.00;100690.50;4973196;28;20065;-83
2022/01/28 08:29:34;;;;;;;32.83;10.98;;;;;;;1.77;100.00;100711.31;4971421;28;20050;-84
2022/01/28 08:32:01;;;;;;;20.85;10.18;;;;;;;1.79;100.00;100715.72;4974273;28;20566;-83
2022/01/28 08:34:27;;;;;;;28.15;9.57;;;;;;;1.81;100.00;100713.78;4970720;28;20046;-84
2022/01/28 08:36:59;;;;;;;19.95;10.45;;;;;;;1.81;100.00;100703.97;4971125;28;20133;-84
2022/01/28 08:39:27;;;;;;;23.73;10.35;;;;;;;1.74;100.00;100721.34;4966924;28;20105;-84
2022/01/28 08:41:54;;;;;;;20.17;10.35;;;;;;;1.84;100.00;100740.47;4967892;28;20051;-84
2022/01/28 08:44:23;;;;;;;24.55;10.68;;;;;;;1.81;100.00;100729.88;4968935;28;20053;-84
2022/01/28 08:46:51;;;;;;;20.90;9.23;;;;;;;1.85;100.00;100723.41;4967992;28;20049;-83
2022/01/28 08:49:18;;;;;;;18.70;10.10;;;;;;;1.86;100.00;100714.41;4973974;28;20387;-84
2022/01/28 08:51:45;;;;;;;16.83;9.15;;;;;;;1.93;100.00;100726.50;4970954;28;20521;-84
2022/01/28 08:54:11;;;;;;;26.15;9.68;;;;;;;1.99;100.00;100733.31;4972471;28;20058;-83
2022/01/28 08:56:41;;;;;;;26.95;10.50;;;;;;;2.05;100.00;100728.44;4964858;28;20057;-84
2022/01/28 08:59:07;;;;;;;20.92;10.05;;;;;;;2.08;100.00;100730.94;4968836;28;20566;-83
2022/01/28 09:01:35;;;;;;;21.77;9.48;;;;;;;2.22;100.00;100738.16;4968493;28;20061;-84
2022/01/28 09:04:03;;;;;;;21.42;9.77;;;;;;;2.20;100.00;100737.41;4972777;28;20397;-84
2022/01/28 09:06:30;;;;;;;22.58;9.13;;;;;;;2.25;100.00;100731.75;4973683;28;20050;-84
2022/01/28 09:09:00;;;;;;;20.52;8.52;;;;;;;2.28;100.00;100731.56;4973617;28;20058;-84
2022/01/28 09:11:45;;;;;;;20.00;8.77;;;;;;;2.34;100.00;100744.59;4971358;28;20101;-83
2022/01/28 09:14:14;;;;;;;21.50;8.52;;;;;;;2.29;100.00;100726.09;4971379;28;20106;-84
2022/01/28 09:16:41;;;;;;;24.03;8.77;;;;;;;2.40;100.00;100733.50;4972851;28;20122;-83
2022/01/28 09:19:09;;;;;;;19.95;9.32;;;;;;;2.30;100.00;100714.41;4971640;28;20770;-83
2022/01/28 09:21:36;;;;;;;20.48;9.32;;;;;;;2.39;100.00;100731.75;4972654;28;20146;-83
2022/01/28 09:24:04;;;;;;;19.35;8.32;;;;;;;2.37;100.00;100732.81;4972641;28;20399;-84
2022/01/28 09:26:31;;;;;;;20.30;8.18;;;;;;;2.50;100.00;100747.22;4972420;28;20057;-84
2022/01/28 09:28:58;;;;;;;24.45;8.60;;;;;;;2.48;100.00;100746.44;4972067;28;20472;-83
2022/01/28 09:31:26;;;;;;;25.02;7.78;;;;;;;2.55;100.00;100728.16;4970886;28;20071;-84
2022/01/28 09:33:52;;;;;;;20.15;8.57;;;;;;;2.60;100.00;100731.41;4968024;28;20057;-83
2022/01/28 09:36:20;;;;;;;19.50;8.07;;;;;;;2.63;100.00;100737.47;4965046;28;20054;-84
2022/01/28 09:38:47;;;;;;;18.40;7.57;;;;;;;2.77;100.00;100747.34;4971036;28;20043;-83
2022/01/28 09:41:18;;;;;;;18.90;6.55;;;;;;;2.85;100.00;100744.16;4972590;28;20060;-84
2022/01/28 09:43:46;;;;;;;11.90;6.30;;;;;;;2.87;100.00;100744.91;4973987;28;20101;-84
2022/01/28 09:46:13;;;;;;;16.70;7.20;;;;;;;2.96;100.00;100746.16;4971968;28;20486;-83
2022/01/28 09:48:41;;;;;;;18.65;7.55;;;;;;;3.06;100.00;100744.63;4965830;28;20047;-83
2022/01/28 09:51:11;;;;;;;15.32;7.43;;;;;;;3.11;100.00;100747.03;4970669;28;20081;-84
2022/01/28 09:53:38;;;;;;;14.98;7.03;;;;;;;2.99;100.00;100728.00;4966806;28;20118;-87
2022/01/28 09:56:05;;;;;;;16.45;6.70;;;;;;;3.08;100.00;100745.38;4976648;28;20050;-88
2022/01/28 09:58:36;;;;;;;15.18;7.30;;;;;;;3.05;100.00;100739.34;4976748;28;20142;-83
2022/01/28 10:01:11;;;;;;;13.77;6.18;;;;;;;3.23;100.00;100761.50;4970747;28;20047;-84
2022/01/28 10:03:39;;;;;;;19.52;7.35;;;;;;;3.17;100.00;100758.22;4975513;28;20066;-83
2022/01/28 10:06:10;;;;;;;25.27;7.50;;;;;;;3.26;100.00;100750.53;4965645;28;20081;-83
2022/01/28 10:09:01;;;;;;;16.65;7.30;;;;;;;3.38;100.00;100757.81;4966404;28;20062;-83
2022/01/28 10:11:41;;;;;;;17.42;7.53;;;;;;;3.35;100.00;100750.78;4967748;28;20058;-83
2022/01/28 10:14:12;;;;;;;;;;;;;;;3.49;100.00;100757.09;4973916;28;20415;-83
2022/01/28 10:16:38;;;;;;;16.15;6.93;;;;;;;3.47;100.00;100742.91;4974802;28;19945;-84
2022/01/28 10:19:06;;;;;;;19.13;8.32;;;;;;;3.52;100.00;100741.66;4971812;28;20074;-84
2022/01/28 10:21:36;;;;;;;14.23;6.78;;;;;;;3.53;100.00;100739.81;4967471;28;20486;-84
2022/01/28 10:24:07;;;;;;;12.75;6.28;;;;;;;3.52;100.00;100747.03;4971661;28;20142;-85
2022/01/28 10:26:41;;;;;;;15.05;6.78;;;;;;;3.50;100.00;100748.94;4969797;28;20039;-83
2022/01/28 10:29:24;;;;;;;20.75;8.15;;;;;;;3.58;100.00;100745.75;4963413;28;20055;-83
2022/01/28 10:34:52;;;;;;;20.88;7.97;;;;;;;3.64;100.00;100753.41;4969563;28;20047;-82
2022/01/28 10:40:12;;;;;;;25.65;7.53;;;;;;;3.90;100.00;100742.75;4947313;28;20054;-83
2022/01/28 10:42:51;;;;;;;15.57;6.65;;;;;;;3.89;100.00;100722.19;4966367;28;20043;-83
2022/01/28 10:45:20;;;;;;;18.58;6.00;;;;;;;3.87;100.00;100721.44;4971881;28;20829;-83
2022/01/28 10:47:48;;;;;;;17.85;6.72;;;;;;;3.89;100.00;100725.72;4969047;28;20047;-84
2022/01/28 10:50:18;;;;;;;19.73;7.20;;;;;;;3.83;100.00;100725.28;4966211;28;20476;-83
2022/01/28 10:52:48;;;;;;;12.80;5.20;;;;;;;3.91;100.00;100747.16;4962965;28;20049;-83
2022/01/28 10:55:19;;;;;;;12.98;5.40;;;;;;;3.89;100.00;100728.41;4973681;28;20736;-83
2022/01/28 10:57:57;;;;;;;22.00;5.80;;;;;;;4.22;100.00;100737.00;4975437;28;20491;-84
2022/01/28 11:00:27;;;;;;;13.18;5.25;;;;;;;4.27;100.00;100734.84;4969898;28;20137;-85
2022/01/28 11:02:54;;;;;;;15.85;7.32;;;;;;;4.28;100.00;100755.44;4969266;28;20054;-83
2022/01/28 11:05:24;;;;;;;12.90;5.53;;;;;;;4.30;100.00;100761.56;4974677;28;20059;-83
2022/01/28 11:08:08;;;;;;;;;;;;;;;4.17;100.00;100761.56;4971653;28;20060;-83
2022/01/28 11:10:49;;;;;;;11.95;4.80;;;;;;;4.17;100.00;100757.97;4972236;28;20007;-83
2022/01/28 11:13:17;;;;;;;9.60;4.45;;;;;;;4.03;100.00;100758.91;4962320;28;20122;-84
2022/01/28 11:15:58;;;;;;;;;;;;;;;;;;;;;
2022/01/28 11:18:26;;;;;;;11.57;4.85;;;;;;;4.00;100.00;100762.69;4970176;28;20050;-84
2022/01/28 11:20:56;;;;;;;14.45;5.85;;;;;;;4.17;100.00;100774.13;4968341;28;20047;-84
2022/01/28 11:23:31;;;;;;;9.70;4.85;;;;;;;4.15;100.00;100754.53;4968499;28;20051;-84
2022/01/28 11:26:12;;;;;;;12.40;5.40;;;;;;;4.32;100.00;100764.16;4973454;28;20418;-84
2022/01/28 11:28:41;;;;;;;13.35;4.95;;;;;;;4.40;100.00;100772.56;4975365;28;20066;-84
2022/01/28 11:31:08;;;;;;;9.43;5.50;;;;;;;4.39;100.00;100768.16;4968389;28;20063;-84
2022/01/28 11:33:45;;;;;;;11.07;4.20;;;;;;;4.13;96.47;100749.25;4958784;28;20475;-83
2022/01/28 11:36:15;;;;;;;9.25;4.03;;;;;;;4.24;97.94;100759.28;4972609;28;20051;-84
2022/01/28 11:38:46;;;;;;;15.02;4.97;;;;;;;4.28;100.00;100757.28;4972170;28;20054;-83
2022/01/28 11:41:17;;;;;;;25.45;4.00;;;;;;;4.52;99.77;100766.34;4963808;28;20062;-84
2022/01/28 11:43:50;;;;;;;12.80;4.30;;;;;;;4.59;97.81;100758.66;4961787;28;20054;-83
2022/01/28 11:46:22;;;;;;;9.93;2.97;;;;;;;4.58;95.29;100756.97;4969761;28;20410;-83
2022/01/28 11:49:19;;;;;;;7.68;3.45;;;;;;;4.34;97.16;100755.00;4967952;28;20574;-83
2022/01/28 11:51:46;;;;;;;8.27;3.10;;;;;;;4.31;95.75;100746.28;4970357;28;20046;-84
2022/01/28 11:54:14;;;;;;;9.00;3.30;;;;;;;4.51;96.30;100761.06;4964961;28;20057;-84
2022/01/28 11:57:11;;;;;;;11.82;3.47;;;;;;;4.67;96.04;100737.47;4966263;28;20047;-84
2022/01/28 11:59:38;;;;;;;10.40;4.15;;;;;;;4.74;94.23;100748.66;4964370;28;20043;-83
2022/01/28 12:02:12;;;;;;;14.30;4.93;;;;;;;4.87;95.70;100748.66;4972296;28;20074;-83
2022/01/28 12:04:40;;;;;;;12.60;4.40;;;;;;;4.92;94.16;100755.44;4972445;28;20506;-84
2022/01/28 12:07:10;;;;;;;7.00;4.10;;;;;;;4.95;91.81;100752.53;4963279;28;20054;-84
2022/01/28 12:09:42;;;;;;;8.65;4.00;;;;;;;5.00;92.63;100762.97;4962792;28;20432;-83
2022/01/28 12:12:12;;;;;;;10.45;3.97;;;;;;;4.93;92.45;100748.22;4966435;28;20057;-83
2022/01/28 12:15:29;;;;;;;10.90;4.15;;;;;;;4.91;92.76;100739.38;4968454;28;20402;-84
2022/01/28 12:18:25;;;;;;;;;;;;;;;;;;;;;
2022/01/28 12:20:58;;;;;;;11.00;4.47;;;;;;;5.01;91.02;100745.81;4969767;28;20148;-84
2022/01/28 12:23:28;;;;;;;8.05;3.70;;;;;;;5.25;93.24;100721.59;4970341;28;20063;-84
2022/01/28 12:25:57;;;;;;;16.60;4.85;;;;;;;5.23;91.29;100744.28;4960349;28;20051;-84
2022/01/28 12:28:27;;;;;;;6.20;3.75;;;;;;;4.93;90.99;100737.44;4967541;28;20047;-84
2022/01/28 12:31:00;;;;;;;10.50;4.20;;;;;;;4.74;92.93;100727.97;4969651;28;20487;-84
2022/01/28 12:33:29;;;;;;;8.77;4.13;;;;;;;4.56;92.34;100732.84;4965279;28;20146;-84
2022/01/28 12:35:58;;;;;;;13.90;3.93;;;;;;;4.65;92.66;100742.06;4969652;28;20047;-83
2022/01/28 12:38:29;;;;;;;7.90;2.45;;;;;;;4.71;91.04;100735.41;4968372;28;20306;-84
2022/01/28 12:41:04;;;;;;;7.45;3.90;;;;;;;4.78;90.39;100717.84;4969883;28;20134;-83
2022/01/28 12:43:34;;;;;;;11.15;3.42;;;;;;;4.71;90.54;100728.19;4971521;28;20054;-83
2022/01/28 12:46:02;;;;;;;9.80;3.37;;;;;;;4.75;90.20;100716.22;4966525;28;20134;-83
2022/01/28 12:48:31;;;;;;;7.60;3.22;;;;;;;4.65;89.21;100731.28;4971219;28;20069;-83
2022/01/28 12:51:21;;;;;;;11.23;4.30;;;;;;;4.66;89.92;100741.13;4964788;28;20066;-83
2022/01/28 12:54:05;;;;;;;7.13;3.10;;;;;;;4.68;90.43;100719.44;4968365;28;20059;-83